Time;durP1;ratioP1;P1;durP2;ratioP2;P2;SDS_P1;SDS_P2;PMS_P1;PMS_P2;Temp;Humidity;BMP_temperature;BMP_pressure;BME280_temperature;BME280_humidity;BME280_pressure;Samples;Min_cycle;Max_cycle;Signal;HPM_P1;HPM_P2
2022/08/22 00:03:07;;;;;;;13.23;5.25;;;17.10;99.90;;;;;;6158856;23;20377;-79
2022/08/22 00:05:54;;;;;;;11.60;5.75;;;;;;;;;;6159996;23;20393;-77
2022/08/22 00:08:26;;;;;;;10.38;5.38;;;;;;;;;;6136227;23;20416;-79
2022/08/22 00:10:59;;;;;;;10.10;5.50;;;;;;;;;;6184513;23;20365;-78
2022/08/22 00:13:52;;;;;;;11.10;6.03;;;17.00;99.90;;;;;;6135880;23;20397;-79
2022/08/22 00:16:39;;;;;;;9.77;5.80;;;17.00;99.90;;;;;;6135458;23;20369;-79
2022/08/22 00:19:22;;;;;;;10.63;5.37;;;16.90;99.90;;;;;;6159914;23;20392;-79
2022/08/22 00:22:01;;;;;;;10.50;5.15;;;;;;;;;;6159994;23;20365;-79
2022/08/22 00:24:34;;;;;;;10.02;4.72;;;16.70;99.90;;;;;;6184395;23;20398;-79
2022/08/22 00:27:00;;;;;;;9.93;5.00;;;;;;;;;;6134936;23;20400;-79
2022/08/22 00:29:46;;;;;;;8.27;4.70;;;17.10;99.90;;;;;;6159660;23;20448;-79
2022/08/22 00:32:18;;;;;;;10.10;4.97;;;17.10;99.90;;;;;;6159097;23;20384;-78
2022/08/22 00:34:58;;;;;;;8.85;5.45;;;17.00;99.90;;;;;;6158448;23;20404;-78
2022/08/22 00:37:31;;;;;;;11.17;5.70;;;;;;;;;;6184591;23;20448;-78
2022/08/22 00:40:22;;;;;;;11.13;6.30;;;17.00;99.90;;;;;;6184291;23;20373;-78
2022/08/22 00:43:37;;;;;;;12.37;6.60;;;16.80;99.90;;;;;;6150148;23;20427;-78
2022/08/22 00:46:07;;;;;;;11.73;6.70;;;;;;;;;;6160353;23;20747;-78
2022/08/22 00:49:03;;;;;;;12.60;7.15;;;17.00;99.90;;;;;;6159716;23;20384;-78
2022/08/22 00:51:47;;;;;;;10.93;6.80;;;;;;;;;;6183986;23;20389;-78
2022/08/22 00:54:32;;;;;;;13.88;6.50;;;16.70;99.90;;;;;;6183451;23;20369;-78
2022/08/22 00:57:20;;;;;;;13.35;6.60;;;16.80;99.90;;;;;;6159116;23;20700;-77
2022/08/22 01:00:10;;;;;;;10.90;6.00;;;16.80;99.90;;;;;;6159210;23;20397;-78
2022/08/22 01:02:50;;;;;;;11.80;6.45;;;;;;;;;;6159351;23;20691;-78
2022/08/22 01:05:27;;;;;;;12.00;6.22;;;16.80;99.90;;;;;;6159436;23;20393;-78
2022/08/22 01:08:00;;;;;;;11.03;6.10;;;;;;;;;;6184211;23;20691;-78
2022/08/22 01:10:53;;;;;;;11.73;6.67;;;16.80;99.90;;;;;;6184088;23;20412;-78
2022/08/22 01:13:25;;;;;;;13.23;7.00;;;;;;;;;;6184015;23;20376;-78
2022/08/22 01:16:04;;;;;;;11.60;7.28;;;16.70;99.90;;;;;;6159023;23;20512;-78
2022/08/22 01:18:47;;;;;;;12.45;7.15;;;16.40;99.90;;;;;;6183133;23;20373;-77
2022/08/22 01:22:01;;;;;;;12.07;7.05;;;16.50;99.90;;;;;;6159082;23;20390;-76
2022/08/22 01:25:17;;;;;;;11.15;6.53;;;16.40;99.90;;;;;;6183727;23;20394;-78
2022/08/22 01:28:26;;;;;;;11.80;6.85;;;16.60;99.90;;;;;;6177720;23;20835;-77
2022/08/22 01:31:10;;;;;;;13.55;6.80;;;;;;;;;;6141150;23;20812;-78
2022/08/22 01:33:55;;;;;;;12.73;6.43;;;;;;;;;;6183599;23;20922;-78
2022/08/22 01:36:40;;;;;;;13.67;6.73;;;;;;;;;;6208910;23;20448;-78
2022/08/22 01:39:25;;;;;;;10.00;6.68;;;;;;;;;;6183226;23;20361;-78
2022/08/22 01:42:19;;;;;;;10.88;6.57;;;16.40;99.90;;;;;;6183764;23;20404;-78
2022/08/22 01:44:59;;;;;;;10.73;6.90;;;16.50;99.90;;;;;;6183605;23;20777;-78
2022/08/22 01:47:48;;;;;;;10.18;6.20;;;;;;;;;;6159414;23;20373;-78
2022/08/22 01:50:23;;;;;;;10.32;6.68;;;16.30;99.90;;;;;;6167534;23;20370;-78
2022/08/22 01:53:13;;;;;;;10.57;6.90;;;16.10;99.90;;;;;;6183736;23;20850;-78
2022/08/22 01:56:29;;;;;;;10.95;6.70;;;16.00;99.90;;;;;;6183039;23;20408;-78
2022/08/22 01:59:02;;;;;;;13.25;7.60;;;16.10;99.90;;;;;;6098630;23;20377;-78
2022/08/22 02:01:48;;;;;;;10.52;7.78;;;15.70;99.90;;;;;;6100959;23;20388;-79
2022/08/22 02:04:33;;;;;;;12.90;8.13;;;;;;;;;;6131105;23;20862;-79
2022/08/22 02:07:10;;;;;;;12.50;8.95;;;16.00;99.90;;;;;;6185602;23;20423;-79
2022/08/22 02:10:14;;;;;;;15.60;9.55;;;15.90;99.90;;;;;;6185497;23;20369;-76
2022/08/22 02:12:40;;;;;;;16.23;9.07;;;;;;;;;;6183603;23;20423;-76
2022/08/22 02:15:25;;;;;;;14.82;9.23;;;;;;;;;;6157548;23;20401;-75
2022/08/22 02:18:03;;;;;;;15.20;10.10;;;15.50;99.90;;;;;;6182385;23;20405;-76
2022/08/22 02:20:47;;;;;;;14.50;9.95;;;15.50;99.90;;;;;;6183600;23;20376;-76
2022/08/22 02:23:44;;;;;;;15.50;10.15;;;15.50;99.90;;;;;;6158727;23;20376;-76
2022/08/22 02:26:20;;;;;;;14.35;9.40;;;15.60;99.90;;;;;;6156384;23;20401;-76
2022/08/22 02:28:59;;;;;;;14.27;9.13;;;15.50;99.90;;;;;;6183495;23;20847;-76
2022/08/22 02:31:28;;;;;;;15.45;9.65;;;;;;;;;;6182770;23;20423;-76
2022/08/22 02:33:56;;;;;;;15.60;9.85;;;;;;;;;;6183320;23;20388;-77
2022/08/22 02:36:25;;;;;;;13.23;9.70;;;;;;;;;;6183153;23;20369;-76
2022/08/22 02:39:24;;;;;;;15.02;9.80;;;15.60;99.90;;;;;;6182784;23;20852;-77
2022/08/22 02:42:21;;;;;;;14.05;10.15;;;15.70;99.90;;;;;;6156804;23;20404;-76
2022/08/22 02:45:01;;;;;;;15.70;9.33;;;15.30;99.90;;;;;;6182633;23;20404;-77
2022/08/22 02:47:34;;;;;;;13.88;8.93;;;15.30;99.90;;;;;;6183102;23;20460;-76
2022/08/22 02:50:17;;;;;;;12.25;9.00;;;15.50;99.90;;;;;;6182599;23;20423;-76
2022/08/22 02:52:43;;;;;;;16.15;9.20;;;;;;;;;;6182676;23;20815;-76
2022/08/22 02:55:20;;;;;;;13.07;8.93;;;;;;;;;;6157906;23;20369;-76
2022/08/22 02:58:01;;;;;;;13.88;9.02;;;15.20;99.90;;;;;;6182294;23;20373;-76
2022/08/22 03:00:39;;;;;;;13.65;9.07;;;15.30;99.90;;;;;;6155613;23;20409;-76
2022/08/22 03:03:23;;;;;;;14.90;8.48;;;15.40;99.90;;;;;;6158317;23;20669;-76
2022/08/22 03:06:01;;;;;;;13.73;8.75;;;;;;;;;;6157695;23;20475;-76
2022/08/22 03:08:33;;;;;;;11.77;8.53;;;15.30;99.90;;;;;;6182714;23;20832;-77
2022/08/22 03:10:59;;;;;;;13.30;9.02;;;;;;;;;;6183271;23;20420;-77
2022/08/22 03:13:58;;;;;;;12.45;8.73;;;15.00;99.90;;;;;;6157899;23;20369;-77
2022/08/22 03:16:24;;;;;;;16.52;8.63;;;;;;;;;;6182683;23;20381;-77
2022/08/22 03:18:55;;;;;;;16.48;9.02;;;15.00;99.90;;;;;;6157918;23;20372;-76
2022/08/22 03:21:24;;;;;;;13.48;9.00;;;;;;;;;;6183045;23;20373;-77
2022/08/22 03:23:54;;;;;;;12.97;8.80;;;;;;;;;;6183169;23;20470;-77
2022/08/22 03:26:42;;;;;;;13.57;8.57;;;14.80;99.90;;;;;;6183006;23;20377;-77
2022/08/22 03:29:11;;;;;;;13.57;8.80;;;;;;;;;;6181943;23;20392;-76
2022/08/22 03:31:57;;;;;;;12.40;8.77;;;15.30;99.90;;;;;;6158077;23;20396;-77
2022/08/22 03:34:26;;;;;;;12.43;9.27;;;;;;;;;;6160660;23;20424;-74
2022/08/22 03:37:01;;;;;;;11.35;8.20;;;;;;;;;;6157545;23;20396;-78
2022/08/22 03:39:46;;;;;;;13.20;8.38;;;;;;;;;;6182765;23;20373;-77
2022/08/22 03:42:21;;;;;;;10.73;8.20;;;;;;;;;;6180713;23;20362;-78
2022/08/22 03:44:59;;;;;;;12.93;8.30;;;;;;;;;;6181651;23;20390;-78
2022/08/22 03:47:45;;;;;;;11.50;8.13;;;;;;;;;;6182539;23;20376;-77
2022/08/22 03:50:46;;;;;;;11.03;8.23;;;;;;;;;;6156507;23;20370;-77
2022/08/22 03:53:25;;;;;;;10.65;8.15;;;;;;;;;;6095885;23;20369;-78
2022/08/22 03:55:51;;;;;;;13.32;7.47;;;;;;;;;;6146566;23;20799;-78
2022/08/22 03:58:36;;;;;;;13.35;7.57;;;;;;;;;;6182814;23;20397;-78
2022/08/22 04:01:46;;;;;;;11.57;7.93;;;14.60;99.90;;;;;;6156879;23;20369;-78
2022/08/22 04:04:15;;;;;;;11.32;7.80;;;;;;;;;;6156420;23;20396;-78
2022/08/22 04:06:44;;;;;;;10.93;7.68;;;;;;;;;;6156882;23;20420;-76
2022/08/22 04:09:16;;;;;;;12.55;8.00;;;;;;;;;;6157292;23;20439;-78
2022/08/22 04:11:45;;;;;;;10.93;7.55;;;;;;;;;;6181881;23;20362;-78
2022/08/22 04:14:11;;;;;;;10.90;7.10;;;;;;;;;;6206581;23;20396;-78
2022/08/22 04:17:04;;;;;;;13.00;7.18;;;;;;;;;;6182161;23;20373;-78
2022/08/22 04:19:49;;;;;;;15.00;8.02;;;;;;;;;;6155239;23;20373;-76
2022/08/22 04:22:27;;;;;;;13.57;8.40;;;;;;;;;;6179803;23;20378;-77
2022/08/22 04:24:53;;;;;;;12.50;8.25;;;;;;;;;;6182165;23;20770;-77
2022/08/22 04:27:35;;;;;;;11.32;7.32;;;14.30;99.90;;;;;;6182375;23;20388;-77
2022/08/22 04:30:29;;;;;;;12.47;8.47;;;14.50;99.90;;;;;;6156379;23;20373;-77
2022/08/22 04:33:09;;;;;;;9.63;7.75;;;14.50;99.90;;;;;;6157155;23;20388;-78
2022/08/22 04:35:45;;;;;;;10.63;7.78;;;14.50;99.90;;;;;;6181202;23;20368;-79
2022/08/22 04:38:14;;;;;;;12.32;8.18;;;;;;;;;;6181965;23;20380;-79
2022/08/22 04:40:49;;;;;;;9.10;7.97;;;;;;;;;;6157277;23;20382;-79
2022/08/22 04:43:31;;;;;;;11.38;7.65;;;;;;;;;;6157152;23;20376;-79
2022/08/22 04:46:33;;;;;;;9.85;7.30;;;14.20;99.90;;;;;;6182541;23;20389;-80
2022/08/22 04:49:12;;;;;;;10.80;7.50;;;14.40;99.90;;;;;;6157310;23;20376;-80
2022/08/22 04:51:44;;;;;;;10.75;7.18;;;14.20;99.90;;;;;;6156932;23;20369;-79
2022/08/22 04:54:13;;;;;;;8.45;6.82;;;;;;;;;;6182963;23;20373;-80
2022/08/22 04:57:00;;;;;;;11.70;6.88;;;;;;;;;;6180519;23;20369;-77
2022/08/22 04:59:28;;;;;;;9.27;6.63;;;;;;;;;;6206392;23;20392;-75
2022/08/22 05:02:05;;;;;;;8.63;6.35;;;14.60;99.90;;;;;;6179843;23;20379;-75
2022/08/22 05:04:39;;;;;;;12.20;6.85;;;14.20;99.90;;;;;;6181867;23;20396;-75
2022/08/22 05:07:13;;;;;;;8.70;7.00;;;14.30;99.90;;;;;;6180413;23;20373;-75
2022/08/22 05:09:42;;;;;;;12.07;7.72;;;;;;;;;;6181284;23;20839;-75
2022/08/22 05:12:10;;;;;;;11.93;8.15;;;;;;;;;;6156563;23;20455;-74
2022/08/22 05:14:42;;;;;;;12.63;8.48;;;;;;;;;;6204931;23;20369;-75
2022/08/22 05:17:10;;;;;;;11.50;7.32;;;;;;;;;;6155484;23;20404;-75
2022/08/22 05:19:44;;;;;;;13.10;8.50;;;14.30;99.90;;;;;;6156008;23;20696;-76
2022/08/22 05:22:20;;;;;;;11.35;8.38;;;14.20;99.90;;;;;;6179761;23;20453;-76
2022/08/22 05:24:50;;;;;;;11.02;8.00;;;14.30;99.90;;;;;;6181563;23;20389;-76
2022/08/22 05:27:43;;;;;;;12.10;8.63;;;13.90;99.90;;;;;;6181074;23;20381;-76
2022/08/22 05:30:15;;;;;;;14.38;7.43;;;14.30;99.90;;;;;;6169358;23;20361;-74
2022/08/22 05:32:50;;;;;;;13.05;8.57;;;;;;;;;;6180512;23;20397;-74
2022/08/22 05:35:17;;;;;;;9.88;7.95;;;;;;;;;;6130683;23;20377;-75
2022/08/22 05:37:50;;;;;;;9.40;7.75;;;14.50;99.90;;;;;;6133713;23;20373;-76
2022/08/22 05:40:23;;;;;;;8.88;7.20;;;;;;;;;;6155199;23;20384;-75
2022/08/22 05:42:49;;;;;;;11.48;8.05;;;14.60;99.90;;;;;;6155851;23;20381;-75
2022/08/22 05:45:17;;;;;;;12.75;7.72;;;;;;;;;;6157896;23;20385;-76
2022/08/22 05:47:48;;;;;;;11.10;8.30;;;;;;;;;;6182408;23;20408;-76
2022/08/22 05:50:33;;;;;;;11.67;8.10;;;;;;;;;;6183133;23;20404;-76
2022/08/22 05:53:09;;;;;;;12.10;8.17;;;;;;;;;;6132163;23;20369;-75
2022/08/22 05:55:53;;;;;;;14.60;9.20;;;15.00;99.90;;;;;;6183265;23;20461;-75
2022/08/22 05:58:25;;;;;;;12.35;8.75;;;;;;;;;;6156334;23;20376;-73
2022/08/22 06:00:54;;;;;;;11.73;8.68;;;;;;;;;;6132330;23;20775;-74
2022/08/22 06:03:55;;;;;;;11.63;7.97;;;15.40;99.90;;;;;;6182409;23;20377;-75
2022/08/22 06:06:23;;;;;;;11.13;8.10;;;15.70;99.90;;;;;;6146197;23;20370;-76
2022/08/22 06:08:52;;;;;;;15.73;9.07;;;;;;;;;;6133027;23;20401;-76
2022/08/22 06:11:38;;;;;;;16.98;9.52;;;;;;;;;;6181626;23;20365;-76
2022/08/22 06:14:34;;;;;;;13.88;8.70;;;15.80;99.90;;;;;;6156761;23;20397;-77
2022/08/22 06:17:11;;;;;;;14.18;9.13;;;15.90;99.90;;;;;;6157526;23;20392;-76
2022/08/22 06:19:40;;;;;;;17.95;9.63;;;;;;;;;;6132466;23;20369;-76
2022/08/22 06:22:06;;;;;;;16.40;9.60;;;;;;;;;;6181657;23;20366;-76
2022/08/22 06:24:36;;;;;;;15.75;9.25;;;16.00;99.90;;;;;;6182219;23;20444;-76
2022/08/22 06:27:08;;;;;;;16.33;9.60;;;;;;;;;;6158229;23;20922;-76
2022/08/22 06:29:36;;;;;;;15.05;9.52;;;;;;;;;;6182413;23;20369;-77
2022/08/22 06:32:10;;;;;;;15.75;9.48;;;;;;;;;;6183018;23;20384;-76
2022/08/22 06:34:39;;;;;;;15.65;9.60;;;16.20;99.90;;;;;;6204011;23;20417;-76
2022/08/22 06:37:08;;;;;;;15.70;9.68;;;;;;;;;;6182595;23;20376;-75
2022/08/22 06:39:38;;;;;;;19.42;9.55;;;16.40;99.90;;;;;;6207349;23;20373;-76
2022/08/22 06:42:13;;;;;;;16.13;9.07;;;;;;;;;;6157827;23;20415;-76
2022/08/22 06:44:45;;;;;;;15.85;8.55;;;16.40;99.90;;;;;;6181864;23;20480;-77
2022/08/22 06:47:35;;;;;;;12.97;9.00;;;16.70;99.90;;;;;;6178470;23;20437;-76
2022/08/22 06:50:47;;;;;;;12.75;8.77;;;16.70;99.90;;;;;;6182824;23;20403;-76
2022/08/22 06:53:16;;;;;;;14.50;8.68;;;16.70;99.90;;;;;;6182310;23;20374;-78
2022/08/22 06:55:45;;;;;;;15.18;8.40;;;;;;;;;;6180869;23;20735;-78
2022/08/22 06:58:14;;;;;;;13.18;9.00;;;;;;;;;;6155715;23;20377;-77
2022/08/22 07:00:42;;;;;;;16.63;8.80;;;16.80;99.90;;;;;;6182416;23;20832;-77
2022/08/22 07:03:19;;;;;;;12.35;8.70;;;;;;;;;;6157716;23;20373;-76
2022/08/22 07:05:46;;;;;;;13.70;8.73;;;;;;;;;;6207333;23;20419;-78
2022/08/22 07:08:18;;;;;;;14.57;8.80;;;;;;;;;;6182032;23;20369;-78
2022/08/22 07:10:57;;;;;;;14.05;9.18;;;;;;;;;;6157550;23;20946;-78
2022/08/22 07:13:27;;;;;;;14.60;9.02;;;17.20;99.90;;;;;;6207602;23;20373;-77
2022/08/22 07:15:58;;;;;;;16.10;9.10;;;17.10;99.90;;;;;;6182791;23;20844;-78
2022/08/22 07:18:26;;;;;;;16.27;9.48;;;17.20;99.90;;;;;;6181728;23;20381;-76
2022/08/22 07:21:01;;;;;;;16.15;8.82;;;17.30;99.90;;;;;;6181701;23;20404;-77
2022/08/22 07:23:33;;;;;;;14.50;8.90;;;;;;;;;;6179099;23;20373;-76
2022/08/22 07:26:02;;;;;;;14.43;8.75;;;17.30;99.90;;;;;;6155161;23;20389;-76
2022/08/22 07:28:37;;;;;;;17.48;9.35;;;;;;;;;;6180393;23;20369;-76
2022/08/22 07:31:29;;;;;;;19.25;8.45;;;17.40;99.90;;;;;;6157462;23;20380;-76
2022/08/22 07:34:12;;;;;;;16.45;8.20;;;17.50;99.90;;;;;;6139900;23;20938;-75
2022/08/22 07:36:47;;;;;;;16.50;8.07;;;17.60;99.90;;;;;;6157526;23;20370;-76
2022/08/22 07:39:37;;;;;;;14.93;7.57;;;;;;;;;;6181896;23;20492;-76
2022/08/22 07:42:20;;;;;;;16.90;7.97;;;17.60;99.90;;;;;;6157541;23;20714;-76
2022/08/22 07:45:05;;;;;;;15.98;8.15;;;17.60;99.90;;;;;;6181556;23;20393;-76
2022/08/22 07:47:54;;;;;;;15.90;8.00;;;;;;;;;;6182986;23;20365;-76
2022/08/22 07:50:27;;;;;;;15.35;7.90;;;17.70;99.90;;;;;;6150988;23;20368;-76
2022/08/22 07:53:02;;;;;;;15.05;7.35;;;17.90;99.90;;;;;;6181484;23;20398;-77
2022/08/22 07:55:27;;;;;;;15.98;7.97;;;18.20;99.90;;;;;;6181842;23;20380;-76
2022/08/22 07:57:59;;;;;;;14.33;7.90;;;18.20;99.90;;;;;;6157221;23;20369;-75
2022/08/22 08:00:28;;;;;;;12.15;7.32;;;18.30;99.90;;;;;;6181712;23;20383;-76
2022/08/22 08:02:57;;;;;;;14.50;7.47;;;18.60;99.90;;;;;;6156891;23;20844;-76
2022/08/22 08:05:26;;;;;;;14.60;6.38;;;;;;;;;;6154605;23;20389;-75
2022/08/22 08:07:54;;;;;;;12.65;6.13;;;18.70;99.90;;;;;;6155155;23;20365;-77
2022/08/22 08:10:31;;;;;;;12.80;5.82;;;18.90;99.90;;;;;;6156104;23;20397;-76
2022/08/22 08:13:18;;;;;;;14.95;5.65;;;;;;;;;;6180442;23;20743;-75
2022/08/22 08:15:44;;;;;;;11.38;6.30;;;;;;;;;;6155985;23;20412;-76
2022/08/22 08:18:17;;;;;;;15.02;6.13;;;;;;;;;;6181531;23;20898;-76
2022/08/22 08:20:48;;;;;;;12.20;5.25;;;19.00;99.90;;;;;;6204935;23;20377;-74
2022/08/22 08:23:18;;;;;;;12.13;4.70;;;;;;;;;;6181811;23;20475;-76
2022/08/22 08:26:02;;;;;;;11.68;5.00;;;18.50;99.90;;;;;;6205089;23;20425;-77
2022/08/22 08:28:36;;;;;;;11.63;4.90;;;;;;;;;;6156494;23;20366;-76
2022/08/22 08:31:28;;;;;;;14.55;5.53;;;19.10;99.90;;;;;;6156333;23;20850;-76
2022/08/22 08:34:23;;;;;;;12.82;4.55;;;19.00;99.90;;;;;;6157052;23;20392;-78
2022/08/22 08:36:49;;;;;;;14.63;5.80;;;19.60;99.90;;;;;;6181615;23;20409;-76
2022/08/22 08:39:17;;;;;;;18.03;6.00;;;;;;;;;;6156758;23;20820;-76
2022/08/22 08:42:03;;;;;;;15.38;5.70;;;19.00;99.90;;;;;;6180746;23;20362;-76
2022/08/22 08:44:37;;;;;;;17.13;6.32;;;19.00;99.90;;;;;;6179906;23;20393;-76
2022/08/22 08:47:09;;;;;;;19.73;8.27;;;19.20;99.90;;;;;;6180693;23;20365;-77
2022/08/22 08:49:57;;;;;;;19.63;8.02;;;19.70;99.90;;;;;;6179044;23;20370;-77
2022/08/22 08:52:35;;;;;;;23.33;12.77;;;20.30;99.90;;;;;;6179161;23;20373;-76
2022/08/22 08:55:29;;;;;;;25.45;12.63;;;20.50;99.90;;;;;;6155342;23;20373;-77
2022/08/22 08:58:22;;;;;;;17.60;5.90;;;20.80;99.90;;;;;;6179979;23;20401;-75
2022/08/22 09:01:05;;;;;;;16.80;7.20;;;20.40;99.90;;;;;;6177007;23;20377;-75
2022/08/22 09:03:52;;;;;;;15.15;5.43;;;21.20;99.90;;;;;;6177679;23;21052;-77
2022/08/22 09:06:38;;;;;;;13.95;5.20;;;21.40;99.90;;;;;;6154759;23;20377;-76
2022/08/22 09:09:26;;;;;;;15.30;4.95;;;21.30;99.90;;;;;;6155669;23;20365;-76
2022/08/22 09:11:52;;;;;;;14.38;5.00;;;21.40;99.90;;;;;;6179238;23;20858;-76
2022/08/22 09:14:53;;;;;;;14.20;4.70;;;21.70;99.90;;;;;;6156421;23;20365;-77
2022/08/22 09:17:37;;;;;;;11.27;4.50;;;22.30;99.90;;;;;;6143677;23;20407;-76
2022/08/22 09:20:22;;;;;;;13.57;4.35;;;21.80;99.90;;;;;;6180578;23;20399;-76
2022/08/22 09:23:13;;;;;;;13.82;3.72;;;22.20;99.90;;;;;;6181304;23;20824;-76
2022/08/22 09:25:58;;;;;;;11.27;3.97;;;22.40;99.90;;;;;;6179675;23;20476;-75
2022/08/22 09:28:36;;;;;;;9.18;3.08;;;22.30;99.90;;;;;;6154691;23;20373;-78
2022/08/22 09:31:19;;;;;;;10.50;3.20;;;22.80;99.90;;;;;;6182047;23;20383;-78
2022/08/22 09:33:53;;;;;;;11.38;3.58;;;23.00;99.90;;;;;;6180467;23;20397;-78
2022/08/22 09:36:45;;;;;;;11.93;3.53;;;22.90;99.90;;;;;;6154222;23;20373;-78
2022/08/22 09:39:11;;;;;;;12.73;3.50;;;22.40;99.90;;;;;;6155500;23;20449;-78
2022/08/22 09:41:43;;;;;;;11.60;3.10;;;22.90;99.90;;;;;;6157213;23;20873;-76
2022/08/22 09:44:47;;;;;;;14.40;4.13;;;23.20;99.90;;;;;;6155202;23;20401;-75
2022/08/22 09:47:13;;;;;;;9.63;3.47;;;22.90;99.90;;;;;;6180044;23;20365;-77
2022/08/22 09:49:54;;;;;;;7.90;2.80;;;23.40;99.90;;;;;;6182064;23;20369;-76
2022/08/22 09:52:30;;;;;;;10.45;2.97;;;23.10;99.90;;;;;;6154136;23;20423;-77
2022/08/22 09:55:11;;;;;;;8.77;2.80;;;23.20;99.90;;;;;;6155882;23;20369;-77
2022/08/22 09:57:49;;;;;;;8.48;3.10;;;22.90;99.90;;;;;;6155300;23;20369;-78
2022/08/22 10:00:30;;;;;;;10.80;3.25;;;23.50;99.90;;;;;;6180508;23;20408;-78
2022/08/22 10:03:06;;;;;;;8.07;3.17;;;23.20;99.90;;;;;;6181355;23;20511;-77
2022/08/22 10:05:45;;;;;;;7.47;2.53;;;23.90;99.90;;;;;;6178634;23;20393;-78
2022/08/22 10:08:17;;;;;;;9.07;3.10;;;23.50;99.90;;;;;;6181277;23;20451;-79
2022/08/22 10:10:59;;;;;;;11.20;3.33;;;23.90;99.90;;;;;;6181148;23;20370;-77
2022/08/22 10:13:50;;;;;;;10.30;3.30;;;24.10;99.90;;;;;;6181775;23;20369;-77
2022/08/22 10:16:23;;;;;;;6.03;2.50;;;24.40;99.90;;;;;;6156206;23;20383;-76
2022/08/22 10:19:12;;;;;;;6.87;2.33;;;24.40;99.90;;;;;;6182407;23;20369;-76
2022/08/22 10:21:44;;;;;;;9.38;2.63;;;23.50;99.90;;;;;;6157953;23;20377;-78
2022/08/22 10:24:29;;;;;;;12.68;2.58;;;23.60;99.90;;;;;;6184067;23;20380;-78
2022/08/22 10:27:02;;;;;;;8.93;3.00;;;24.00;99.90;;;;;;6158117;23;20381;-80
2022/08/22 10:30:08;;;;;;;8.55;3.10;;;24.30;99.90;;;;;;6182898;23;20369;-78
2022/08/22 10:32:46;;;;;;;11.82;3.10;;;24.70;99.90;;;;;;6181012;23;20368;-78
2022/08/22 10:35:26;;;;;;;8.67;2.97;;;24.80;99.90;;;;;;6158968;23;20373;-79
2022/08/22 10:38:02;;;;;;;8.18;2.75;;;23.80;99.90;;;;;;6155931;23;20405;-78
2022/08/22 10:40:40;;;;;;;8.23;2.65;;;24.00;99.90;;;;;;6159751;23;20476;-78
2022/08/22 10:43:12;;;;;;;7.63;2.42;;;24.40;99.90;;;;;;6158688;23;21029;-77
2022/08/22 10:45:45;;;;;;;6.60;2.80;;;24.30;99.90;;;;;;6133843;23;20392;-78
2022/08/22 10:48:11;;;;;;;9.20;2.97;;;24.50;99.90;;;;;;6156587;23;20373;-76
2022/08/22 10:51:12;;;;;;;9.77;3.28;;;24.80;99.90;;;;;;6158405;23;20376;-77
2022/08/22 10:54:11;;;;;;;11.43;3.20;;;24.60;99.90;;;;;;6133064;23;20372;-78
2022/08/22 10:56:51;;;;;;;8.25;2.65;;;25.00;99.90;;;;;;6157638;23;20393;-79
2022/08/22 10:59:29;;;;;;;10.40;3.20;;;25.40;99.90;;;;;;6156227;23;20366;-77
2022/08/22 11:02:14;;;;;;;11.00;3.23;;;25.20;99.90;;;;;;6156860;23;20382;-78
2022/08/22 11:05:21;;;;;;;9.27;3.05;;;25.20;99.90;;;;;;6155933;23;20467;-78
2022/08/22 11:08:22;;;;;;;6.65;2.80;;;24.80;99.90;;;;;;6128065;23;20369;-77
2022/08/22 11:11:16;;;;;;;8.45;3.00;;;24.50;99.90;;;;;;6080839;23;20370;-78
2022/08/22 11:14:05;;;;;;;8.32;3.00;;;25.10;99.90;;;;;;6158501;23;20669;-78
2022/08/22 11:16:59;;;;;;;7.23;2.50;;;25.30;99.90;;;;;;6157800;23;20688;-77
2022/08/22 11:19:34;;;;;;;9.18;2.83;;;25.60;99.90;;;;;;6134317;23;20774;-78
2022/08/22 11:22:18;;;;;;;9.80;2.95;;;25.30;99.90;;;;;;6157971;23;20396;-78
2022/08/22 11:25:02;;;;;;;6.15;2.53;;;25.90;99.90;;;;;;6157047;23;20386;-78
2022/08/22 11:27:54;;;;;;;7.10;2.63;;;25.60;99.90;;;;;;6158663;23;20365;-78
2022/08/22 11:30:34;;;;;;;6.70;2.40;;;25.20;99.90;;;;;;6157664;23;20733;-78
2022/08/22 11:33:24;;;;;;;8.48;2.42;;;25.00;99.90;;;;;;6136036;23;20469;-77
2022/08/22 11:36:14;;;;;;;8.13;2.93;;;25.00;99.90;;;;;;6180569;23;20692;-77
2022/08/22 11:38:52;;;;;;;10.07;2.58;;;25.00;99.90;;;;;;6181400;23;20392;-77
2022/08/22 11:41:30;;;;;;;10.50;2.22;;;25.10;99.90;;;;;;6181597;23;20375;-78
2022/08/22 11:44:10;;;;;;;8.18;2.65;;;24.80;99.90;;;;;;6182279;23;20432;-78
2022/08/22 11:46:41;;;;;;;9.07;2.55;;;24.40;99.90;;;;;;6181673;23;20424;-77
2022/08/22 11:49:26;;;;;;;9.73;3.05;;;24.60;99.90;;;;;;6181463;23;20361;-78
2022/08/22 11:52:06;;;;;;;9.07;2.90;;;24.30;99.90;;;;;;6156729;23;20380;-77
2022/08/22 11:55:04;;;;;;;7.32;2.50;;;24.60;99.90;;;;;;6157732;23;20436;-77
2022/08/22 11:57:46;;;;;;;8.60;3.10;;;24.70;99.90;;;;;;6182233;23;20439;-78
2022/08/22 12:00:42;;;;;;;7.22;2.30;;;24.60;99.90;;;;;;6179562;23;20902;-76
2022/08/22 12:03:38;;;;;;;8.63;2.33;;;25.10;99.90;;;;;;6179165;23;20395;-78
2022/08/22 12:06:35;;;;;;;5.75;2.20;;;24.60;99.90;;;;;;6180982;23;20393;-78
2022/08/22 12:09:26;;;;;;;8.77;2.85;;;25.00;99.90;;;;;;6155375;23;20373;-78
2022/08/22 12:11:58;;;;;;;9.57;2.20;;;25.80;99.90;;;;;;6157054;23;20424;-77
2022/08/22 12:14:39;;;;;;;6.95;2.70;;;25.70;99.90;;;;;;6182349;23;20412;-76
2022/08/22 12:17:23;;;;;;;9.00;2.70;;;25.40;99.90;;;;;;6180313;23;20448;-77
2022/08/22 12:20:06;;;;;;;7.68;2.70;;;25.60;99.90;;;;;;6155319;23;20441;-78
2022/08/22 12:22:41;;;;;;;12.37;3.03;;;25.80;99.90;;;;;;6177299;23;20405;-77
2022/08/22 12:25:34;;;;;;;10.00;2.95;;;25.00;99.90;;;;;;6179533;23;20835;-78
2022/08/22 12:28:20;;;;;;;9.07;3.00;;;24.70;99.90;;;;;;6182352;23;20377;-77
2022/08/22 12:31:24;;;;;;;9.38;3.17;;;25.50;99.90;;;;;;6156897;23;20455;-77
2022/08/22 12:33:59;;;;;;;9.68;3.00;;;26.00;99.90;;;;;;6145869;23;20400;-78
2022/08/22 12:36:33;;;;;;;7.90;3.20;;;26.10;99.90;;;;;;6178682;23;20740;-78
2022/08/22 12:39:11;;;;;;;7.88;2.70;;;25.50;99.90;;;;;;6176535;23;20377;-79
2022/08/22 12:42:05;;;;;;;8.15;3.00;;;25.60;99.90;;;;;;6154877;23;20384;-79
2022/08/22 12:44:49;;;;;;;7.53;2.70;;;24.90;99.90;;;;;;6181284;23;20397;-79
2022/08/22 12:47:18;;;;;;;8.60;2.85;;;25.50;99.90;;;;;;6153858;23;20756;-77
2022/08/22 12:50:12;;;;;;;9.18;2.95;;;24.80;99.90;;;;;;6156355;23;20393;-78
2022/08/22 12:53:17;;;;;;;7.70;2.72;;;25.50;99.90;;;;;;6181359;23;20448;-78
2022/08/22 12:56:15;;;;;;;11.10;2.90;;;25.60;99.90;;;;;;6181931;23;20378;-77
2022/08/22 12:59:13;;;;;;;10.60;2.80;;;25.60;99.90;;;;;;6182441;23;20369;-77
2022/08/22 13:01:43;;;;;;;8.85;3.00;;;24.90;99.90;;;;;;6181499;23;20372;-77
2022/08/22 13:04:24;;;;;;;8.60;2.50;;;24.80;99.90;;;;;;6182508;23;20428;-77
2022/08/22 13:06:55;;;;;;;8.20;3.05;;;25.20;99.90;;;;;;6181551;23;20797;-77
2022/08/22 13:09:34;;;;;;;7.78;2.65;;;25.20;99.90;;;;;;6182832;23;20495;-78
2022/08/22 13:12:17;;;;;;;9.38;2.85;;;25.10;99.90;;;;;;6156905;23;20704;-77
2022/08/22 13:14:46;;;;;;;6.82;2.50;;;25.10;99.90;;;;;;6156311;23;20377;-75
2022/08/22 13:17:16;;;;;;;9.27;2.83;;;24.70;99.90;;;;;;6181234;23;20370;-77
2022/08/22 13:19:54;;;;;;;8.25;2.50;;;25.10;99.90;;;;;;6181520;23;20452;-78
2022/08/22 13:22:25;;;;;;;8.52;2.60;;;25.10;99.90;;;;;;6155903;23;20370;-77
2022/08/22 13:25:21;;;;;;;10.20;2.80;;;25.20;99.90;;;;;;6180336;23;20397;-77
2022/08/22 13:27:59;;;;;;;7.43;2.58;;;25.20;99.90;;;;;;6155524;23;20454;-77
2022/08/22 13:30:35;;;;;;;7.25;2.63;;;25.60;99.90;;;;;;6157093;23;20366;-77
2022/08/22 13:33:09;;;;;;;7.38;2.45;;;25.80;99.90;;;;;;6181533;23;20389;-77
2022/08/22 13:35:51;;;;;;;6.95;2.20;;;26.40;99.90;;;;;;6156428;23;20369;-79
2022/08/22 13:38:28;;;;;;;6.50;2.22;;;26.70;99.90;;;;;;6157185;23;20436;-77
2022/08/22 13:41:00;;;;;;;6.45;2.40;;;26.10;99.90;;;;;;6182117;23;20677;-77
2022/08/22 13:43:54;;;;;;;7.75;2.30;;;26.10;99.90;;;;;;6156981;23;20394;-79
2022/08/22 13:46:29;;;;;;;10.93;2.75;;;25.50;99.90;;;;;;6181772;23;20536;-77
2022/08/22 13:48:59;;;;;;;6.78;2.22;;;26.10;99.90;;;;;;6181640;23;20889;-78
2022/08/22 13:51:50;;;;;;;7.13;2.30;;;26.30;99.90;;;;;;6180894;23;20455;-78
2022/08/22 13:54:19;;;;;;;7.93;2.38;;;26.30;99.90;;;;;;6156003;23;20372;-78
2022/08/22 13:56:59;;;;;;;8.30;2.95;;;26.00;99.90;;;;;;6157311;23;20839;-77
2022/08/22 13:59:52;;;;;;;5.70;2.30;;;26.10;99.90;;;;;;6158778;23;20369;-77
2022/08/22 14:02:38;;;;;;;5.60;2.03;;;25.00;99.90;;;;;;6182906;23;20365;-78
2022/08/22 14:05:38;;;;;;;7.93;2.97;;;26.40;99.90;;;;;;6183182;23;20710;-77
2022/08/22 14:08:23;;;;;;;6.90;2.35;;;26.20;99.90;;;;;;6165269;23;20365;-77
2022/08/22 14:10:58;;;;;;;6.53;2.47;;;25.70;99.90;;;;;;6183383;23;20436;-77
2022/08/22 14:13:30;;;;;;;6.65;2.30;;;25.50;99.90;;;;;;6183361;23;20835;-76
2022/08/22 14:16:01;;;;;;;7.65;2.40;;;26.00;99.90;;;;;;6157617;23;20419;-78
2022/08/22 14:18:35;;;;;;;8.80;2.80;;;26.10;99.90;;;;;;6159051;23;20382;-77
2022/08/22 14:21:50;;;;;;;6.75;2.30;;;25.90;99.90;;;;;;6159400;23;20381;-78